sensor_id;sensor_type;location;lat;lon;timestamp;P1;durP1;ratioP1;P2;durP2;ratioP2
13720;SDS011;6932;51.438;5.470;2023-02-15T00:01:10;23.57;;;16.13;;
13720;SDS011;6932;51.438;5.470;2023-02-15T00:03:37;26.70;;;16.50;;
13720;SDS011;6932;51.438;5.470;2023-02-15T00:06:03;23.70;;;15.57;;
13720;SDS011;6932;51.438;5.470;2023-02-15T00:08:30;23.77;;;16.03;;
13720;SDS011;6932;51.438;5.470;2023-02-15T00:11:03;23.17;;;15.57;;
13720;SDS011;6932;51.438;5.470;2023-02-15T00:13:38;24.73;;;15.70;;
13720;SDS011;6932;51.438;5.470;2023-02-15T00:16:08;24.63;;;16.20;;
13720;SDS011;6932;51.438;5.470;2023-02-15T00:18:37;24.43;;;15.97;;
13720;SDS011;6932;51.438;5.470;2023-02-15T00:21:07;24.37;;;15.63;;
13720;SDS011;6932;51.438;5.470;2023-02-15T00:23:35;23.73;;;16.07;;
13720;SDS011;6932;51.438;5.470;2023-02-15T00:28:30;27.20;;;15.87;;
13720;SDS011;6932;51.438;5.470;2023-02-15T00:31:01;28.00;;;16.10;;
13720;SDS011;6932;51.438;5.470;2023-02-15T00:33:37;23.17;;;15.53;;
13720;SDS011;6932;51.438;5.470;2023-02-15T00:36:08;22.87;;;15.90;;
13720;SDS011;6932;51.438;5.470;2023-02-15T00:38:35;25.07;;;15.70;;
13720;SDS011;6932;51.438;5.470;2023-02-15T00:41:02;24.20;;;15.63;;
13720;SDS011;6932;51.438;5.470;2023-02-15T00:43:31;23.70;;;15.03;;
13720;SDS011;6932;51.438;5.470;2023-02-15T00:45:59;22.37;;;16.00;;
13720;SDS011;6932;51.438;5.470;2023-02-15T00:48:26;23.07;;;15.50;;
13720;SDS011;6932;51.438;5.470;2023-02-15T00:50:53;22.00;;;14.77;;
13720;SDS011;6932;51.438;5.470;2023-02-15T00:53:22;22.47;;;15.30;;
13720;SDS011;6932;51.438;5.470;2023-02-15T00:55:50;22.03;;;15.07;;
13720;SDS011;6932;51.438;5.470;2023-02-15T00:58:15;22.47;;;15.17;;
13720;SDS011;6932;51.438;5.470;2023-02-15T01:00:42;21.97;;;14.43;;
13720;SDS011;6932;51.438;5.470;2023-02-15T01:03:11;22.90;;;14.80;;
13720;SDS011;6932;51.438;5.470;2023-02-15T01:05:39;24.57;;;15.60;;
13720;SDS011;6932;51.438;5.470;2023-02-15T01:08:05;22.97;;;14.70;;
13720;SDS011;6932;51.438;5.470;2023-02-15T01:10:31;25.67;;;15.17;;
13720;SDS011;6932;51.438;5.470;2023-02-15T01:12:59;22.83;;;15.27;;
13720;SDS011;6932;51.438;5.470;2023-02-15T01:15:25;22.90;;;14.30;;
13720;SDS011;6932;51.438;5.470;2023-02-15T01:17:51;25.20;;;14.93;;
13720;SDS011;6932;51.438;5.470;2023-02-15T01:20:21;24.73;;;14.83;;
13720;SDS011;6932;51.438;5.470;2023-02-15T01:22:51;24.63;;;15.83;;
13720;SDS011;6932;51.438;5.470;2023-02-15T01:25:19;23.50;;;14.83;;
13720;SDS011;6932;51.438;5.470;2023-02-15T01:27:47;22.10;;;14.37;;
13720;SDS011;6932;51.438;5.470;2023-02-15T01:30:14;23.83;;;14.77;;
13720;SDS011;6932;51.438;5.470;2023-02-15T01:32:41;21.90;;;14.60;;
13720;SDS011;6932;51.438;5.470;2023-02-15T01:35:08;24.17;;;15.30;;
13720;SDS011;6932;51.438;5.470;2023-02-15T01:37:34;22.27;;;14.67;;
13720;SDS011;6932;51.438;5.470;2023-02-15T01:40:01;22.03;;;14.57;;
13720;SDS011;6932;51.438;5.470;2023-02-15T01:42:33;23.10;;;15.00;;
13720;SDS011;6932;51.438;5.470;2023-02-15T01:45:00;23.40;;;15.07;;
13720;SDS011;6932;51.438;5.470;2023-02-15T01:47:40;23.77;;;14.93;;
13720;SDS011;6932;51.438;5.470;2023-02-15T01:50:15;22.77;;;14.80;;
13720;SDS011;6932;51.438;5.470;2023-02-15T01:55:57;24.20;;;15.00;;
13720;SDS011;6932;51.438;5.470;2023-02-15T01:58:33;24.10;;;14.90;;
13720;SDS011;6932;51.438;5.470;2023-02-15T02:01:01;21.27;;;14.67;;
13720;SDS011;6932;51.438;5.470;2023-02-15T02:03:32;22.73;;;14.37;;
13720;SDS011;6932;51.438;5.470;2023-02-15T02:06:07;23.57;;;14.80;;
13720;SDS011;6932;51.438;5.470;2023-02-15T02:08:34;23.03;;;14.47;;
13720;SDS011;6932;51.438;5.470;2023-02-15T02:11:00;22.03;;;14.37;;
13720;SDS011;6932;51.438;5.470;2023-02-15T02:13:26;21.87;;;14.70;;
13720;SDS011;6932;51.438;5.470;2023-02-15T02:16:00;24.70;;;15.20;;
13720;SDS011;6932;51.438;5.470;2023-02-15T02:18:45;21.73;;;14.67;;
13720;SDS011;6932;51.438;5.470;2023-02-15T02:24:59;22.03;;;14.20;;
13720;SDS011;6932;51.438;5.470;2023-02-15T02:27:47;22.77;;;14.57;;
13720;SDS011;6932;51.438;5.470;2023-02-15T02:30:49;22.17;;;14.50;;
13720;SDS011;6932;51.438;5.470;2023-02-15T02:36:34;23.77;;;14.60;;
13720;SDS011;6932;51.438;5.470;2023-02-15T02:39:33;21.03;;;13.80;;
13720;SDS011;6932;51.438;5.470;2023-02-15T02:42:40;21.83;;;14.33;;
13720;SDS011;6932;51.438;5.470;2023-02-15T02:48:25;21.77;;;14.60;;
13720;SDS011;6932;51.438;5.470;2023-02-15T02:50:57;21.50;;;15.10;;
13720;SDS011;6932;51.438;5.470;2023-02-15T02:53:23;22.80;;;14.57;;
13720;SDS011;6932;51.438;5.470;2023-02-15T02:55:56;21.93;;;14.20;;
13720;SDS011;6932;51.438;5.470;2023-02-15T02:58:47;23.50;;;15.03;;
13720;SDS011;6932;51.438;5.470;2023-02-15T03:03:59;23.07;;;14.33;;
13720;SDS011;6932;51.438;5.470;2023-02-15T03:09:23;22.13;;;13.63;;
13720;SDS011;6932;51.438;5.470;2023-02-15T03:12:08;20.27;;;13.70;;
13720;SDS011;6932;51.438;5.470;2023-02-15T03:14:44;20.47;;;13.53;;
13720;SDS011;6932;51.438;5.470;2023-02-15T03:17:18;23.87;;;15.03;;
13720;SDS011;6932;51.438;5.470;2023-02-15T03:19:47;20.77;;;14.17;;
13720;SDS011;6932;51.438;5.470;2023-02-15T03:22:20;22.50;;;13.57;;
13720;SDS011;6932;51.438;5.470;2023-02-15T03:24:59;19.70;;;13.40;;
13720;SDS011;6932;51.438;5.470;2023-02-15T03:27:48;22.97;;;14.43;;
13720;SDS011;6932;51.438;5.470;2023-02-15T03:30:20;20.77;;;13.90;;
13720;SDS011;6932;51.438;5.470;2023-02-15T03:32:48;20.80;;;14.17;;
13720;SDS011;6932;51.438;5.470;2023-02-15T03:35:16;22.20;;;14.07;;
13720;SDS011;6932;51.438;5.470;2023-02-15T03:37:50;21.23;;;13.97;;
13720;SDS011;6932;51.438;5.470;2023-02-15T03:46:05;20.07;;;13.50;;
13720;SDS011;6932;51.438;5.470;2023-02-15T03:52:27;22.50;;;14.17;;
13720;SDS011;6932;51.438;5.470;2023-02-15T03:54:55;22.37;;;13.90;;
13720;SDS011;6932;51.438;5.470;2023-02-15T03:57:23;21.20;;;13.73;;
13720;SDS011;6932;51.438;5.470;2023-02-15T04:03:12;21.70;;;13.70;;
13720;SDS011;6932;51.438;5.470;2023-02-15T04:05:44;19.37;;;12.37;;
13720;SDS011;6932;51.438;5.470;2023-02-15T04:08:11;20.57;;;13.30;;
13720;SDS011;6932;51.438;5.470;2023-02-15T04:10:37;20.80;;;13.17;;
13720;SDS011;6932;51.438;5.470;2023-02-15T04:13:24;21.00;;;13.03;;
13720;SDS011;6932;51.438;5.470;2023-02-15T04:15:56;24.37;;;13.27;;
13720;SDS011;6932;51.438;5.470;2023-02-15T04:18:35;20.53;;;13.23;;
13720;SDS011;6932;51.438;5.470;2023-02-15T04:21:26;20.40;;;12.67;;
13720;SDS011;6932;51.438;5.470;2023-02-15T04:24:13;22.70;;;14.07;;
13720;SDS011;6932;51.438;5.470;2023-02-15T04:26:59;22.37;;;13.27;;
13720;SDS011;6932;51.438;5.470;2023-02-15T04:29:26;19.53;;;13.03;;
13720;SDS011;6932;51.438;5.470;2023-02-15T04:31:53;20.27;;;12.73;;
13720;SDS011;6932;51.438;5.470;2023-02-15T04:34:21;20.57;;;13.63;;
13720;SDS011;6932;51.438;5.470;2023-02-15T04:36:47;21.10;;;13.33;;
13720;SDS011;6932;51.438;5.470;2023-02-15T04:39:13;19.43;;;12.57;;
13720;SDS011;6932;51.438;5.470;2023-02-15T04:41:41;21.60;;;12.90;;
13720;SDS011;6932;51.438;5.470;2023-02-15T04:44:07;21.03;;;13.53;;
13720;SDS011;6932;51.438;5.470;2023-02-15T04:46:33;20.57;;;12.83;;
13720;SDS011;6932;51.438;5.470;2023-02-15T04:48:59;19.60;;;12.80;;
13720;SDS011;6932;51.438;5.470;2023-02-15T04:51:26;19.97;;;13.60;;
13720;SDS011;6932;51.438;5.470;2023-02-15T04:53:51;22.03;;;13.43;;
13720;SDS011;6932;51.438;5.470;2023-02-15T04:56:18;20.03;;;12.80;;
13720;SDS011;6932;51.438;5.470;2023-02-15T04:58:46;19.07;;;12.70;;
13720;SDS011;6932;51.438;5.470;2023-02-15T05:01:12;19.77;;;13.30;;
13720;SDS011;6932;51.438;5.470;2023-02-15T05:03:38;21.37;;;13.17;;
13720;SDS011;6932;51.438;5.470;2023-02-15T05:06:04;21.00;;;12.83;;
13720;SDS011;6932;51.438;5.470;2023-02-15T05:08:30;20.57;;;13.03;;
13720;SDS011;6932;51.438;5.470;2023-02-15T05:10:56;21.43;;;13.13;;
13720;SDS011;6932;51.438;5.470;2023-02-15T05:13:23;20.40;;;13.17;;
13720;SDS011;6932;51.438;5.470;2023-02-15T05:15:49;21.43;;;13.23;;
13720;SDS011;6932;51.438;5.470;2023-02-15T05:18:17;20.20;;;12.73;;
13720;SDS011;6932;51.438;5.470;2023-02-15T05:20:46;20.00;;;13.10;;
13720;SDS011;6932;51.438;5.470;2023-02-15T05:23:12;21.13;;;12.23;;
13720;SDS011;6932;51.438;5.470;2023-02-15T05:25:38;21.27;;;12.60;;
13720;SDS011;6932;51.438;5.470;2023-02-15T05:28:23;21.23;;;13.73;;
13720;SDS011;6932;51.438;5.470;2023-02-15T05:33:32;19.70;;;12.40;;
13720;SDS011;6932;51.438;5.470;2023-02-15T05:35:59;20.07;;;13.00;;
13720;SDS011;6932;51.438;5.470;2023-02-15T05:38:26;23.17;;;12.80;;
13720;SDS011;6932;51.438;5.470;2023-02-15T05:40:52;20.10;;;13.10;;
13720;SDS011;6932;51.438;5.470;2023-02-15T05:43:18;20.13;;;13.07;;
13720;SDS011;6932;51.438;5.470;2023-02-15T05:45:45;21.67;;;12.83;;
13720;SDS011;6932;51.438;5.470;2023-02-15T05:48:16;19.63;;;12.47;;
13720;SDS011;6932;51.438;5.470;2023-02-15T05:50:43;20.83;;;13.47;;
13720;SDS011;6932;51.438;5.470;2023-02-15T05:53:09;20.03;;;12.73;;
13720;SDS011;6932;51.438;5.470;2023-02-15T05:55:39;20.47;;;13.57;;
13720;SDS011;6932;51.438;5.470;2023-02-15T05:58:06;19.60;;;12.63;;
13720;SDS011;6932;51.438;5.470;2023-02-15T06:00:33;20.37;;;13.27;;
13720;SDS011;6932;51.438;5.470;2023-02-15T06:02:59;21.03;;;13.13;;
13720;SDS011;6932;51.438;5.470;2023-02-15T06:05:25;19.73;;;12.67;;
13720;SDS011;6932;51.438;5.470;2023-02-15T06:07:51;21.63;;;13.63;;
13720;SDS011;6932;51.438;5.470;2023-02-15T06:10:17;20.83;;;13.60;;
13720;SDS011;6932;51.438;5.470;2023-02-15T06:12:43;20.23;;;12.87;;
13720;SDS011;6932;51.438;5.470;2023-02-15T06:15:09;23.00;;;13.77;;
13720;SDS011;6932;51.438;5.470;2023-02-15T06:17:35;23.47;;;13.23;;
13720;SDS011;6932;51.438;5.470;2023-02-15T06:20:01;21.07;;;13.27;;
13720;SDS011;6932;51.438;5.470;2023-02-15T06:22:28;20.63;;;13.40;;
13720;SDS011;6932;51.438;5.470;2023-02-15T06:24:54;20.37;;;13.00;;
13720;SDS011;6932;51.438;5.470;2023-02-15T06:27:19;20.03;;;12.87;;
13720;SDS011;6932;51.438;5.470;2023-02-15T06:29:45;19.80;;;13.27;;
13720;SDS011;6932;51.438;5.470;2023-02-15T06:32:11;21.30;;;13.27;;
13720;SDS011;6932;51.438;5.470;2023-02-15T06:34:36;19.40;;;12.87;;
13720;SDS011;6932;51.438;5.470;2023-02-15T06:37:02;21.13;;;13.43;;
13720;SDS011;6932;51.438;5.470;2023-02-15T06:39:28;18.93;;;12.70;;
13720;SDS011;6932;51.438;5.470;2023-02-15T06:41:54;21.07;;;13.40;;
13720;SDS011;6932;51.438;5.470;2023-02-15T06:44:19;22.87;;;13.80;;
13720;SDS011;6932;51.438;5.470;2023-02-15T06:46:45;20.23;;;13.10;;
13720;SDS011;6932;51.438;5.470;2023-02-15T06:49:11;22.70;;;13.57;;
13720;SDS011;6932;51.438;5.470;2023-02-15T06:51:37;23.50;;;13.80;;
13720;SDS011;6932;51.438;5.470;2023-02-15T06:54:02;21.43;;;13.47;;
13720;SDS011;6932;51.438;5.470;2023-02-15T06:56:29;21.07;;;13.40;;
13720;SDS011;6932;51.438;5.470;2023-02-15T06:58:55;22.37;;;14.03;;
13720;SDS011;6932;51.438;5.470;2023-02-15T07:01:20;21.77;;;13.50;;
13720;SDS011;6932;51.438;5.470;2023-02-15T07:03:46;23.20;;;13.97;;
13720;SDS011;6932;51.438;5.470;2023-02-15T07:06:12;21.50;;;13.13;;
13720;SDS011;6932;51.438;5.470;2023-02-15T07:08:38;22.43;;;13.80;;
13720;SDS011;6932;51.438;5.470;2023-02-15T07:11:05;20.27;;;13.13;;
13720;SDS011;6932;51.438;5.470;2023-02-15T07:13:50;20.63;;;13.13;;
13720;SDS011;6932;51.438;5.470;2023-02-15T07:16:17;21.90;;;13.70;;
13720;SDS011;6932;51.438;5.470;2023-02-15T07:18:44;20.77;;;13.73;;
13720;SDS011;6932;51.438;5.470;2023-02-15T07:21:10;21.50;;;13.90;;
13720;SDS011;6932;51.438;5.470;2023-02-15T07:23:36;22.93;;;14.03;;
13720;SDS011;6932;51.438;5.470;2023-02-15T07:26:03;23.03;;;14.40;;
13720;SDS011;6932;51.438;5.470;2023-02-15T07:28:31;21.10;;;13.37;;
13720;SDS011;6932;51.438;5.470;2023-02-15T07:31:03;22.20;;;13.40;;
13720;SDS011;6932;51.438;5.470;2023-02-15T07:33:30;20.60;;;13.33;;
13720;SDS011;6932;51.438;5.470;2023-02-15T07:35:58;20.60;;;13.50;;
13720;SDS011;6932;51.438;5.470;2023-02-15T07:38:27;24.77;;;15.07;;
13720;SDS011;6932;51.438;5.470;2023-02-15T07:41:02;25.70;;;15.10;;
13720;SDS011;6932;51.438;5.470;2023-02-15T07:43:32;22.87;;;14.40;;
13720;SDS011;6932;51.438;5.470;2023-02-15T07:46:01;20.60;;;14.00;;
13720;SDS011;6932;51.438;5.470;2023-02-15T07:48:30;22.60;;;14.83;;
13720;SDS011;6932;51.438;5.470;2023-02-15T07:51:01;22.50;;;14.10;;
13720;SDS011;6932;51.438;5.470;2023-02-15T07:53:28;21.73;;;13.93;;
13720;SDS011;6932;51.438;5.470;2023-02-15T07:55:54;21.03;;;14.03;;
13720;SDS011;6932;51.438;5.470;2023-02-15T07:58:28;23.57;;;15.00;;
13720;SDS011;6932;51.438;5.470;2023-02-15T08:01:13;21.80;;;14.17;;
13720;SDS011;6932;51.438;5.470;2023-02-15T08:03:40;21.83;;;14.30;;
13720;SDS011;6932;51.438;5.470;2023-02-15T08:06:06;23.97;;;14.57;;
13720;SDS011;6932;51.438;5.470;2023-02-15T08:08:35;22.40;;;14.47;;
13720;SDS011;6932;51.438;5.470;2023-02-15T08:13:51;22.07;;;14.43;;
13720;SDS011;6932;51.438;5.470;2023-02-15T08:18:57;21.97;;;14.03;;
13720;SDS011;6932;51.438;5.470;2023-02-15T08:21:27;23.13;;;14.00;;
13720;SDS011;6932;51.438;5.470;2023-02-15T08:23:55;22.27;;;15.03;;
13720;SDS011;6932;51.438;5.470;2023-02-15T08:26:22;22.93;;;15.73;;
13720;SDS011;6932;51.438;5.470;2023-02-15T08:28:50;22.63;;;14.73;;
13720;SDS011;6932;51.438;5.470;2023-02-15T08:31:16;25.57;;;15.60;;
13720;SDS011;6932;51.438;5.470;2023-02-15T08:33:43;24.33;;;15.60;;
13720;SDS011;6932;51.438;5.470;2023-02-15T08:36:13;23.33;;;15.23;;
13720;SDS011;6932;51.438;5.470;2023-02-15T08:38:43;24.50;;;15.37;;
13720;SDS011;6932;51.438;5.470;2023-02-15T08:41:19;22.23;;;15.67;;
13720;SDS011;6932;51.438;5.470;2023-02-15T08:43:49;22.33;;;15.10;;
13720;SDS011;6932;51.438;5.470;2023-02-15T08:46:18;23.50;;;15.43;;
13720;SDS011;6932;51.438;5.470;2023-02-15T08:48:46;23.33;;;15.37;;
13720;SDS011;6932;51.438;5.470;2023-02-15T08:51:13;23.53;;;15.07;;
13720;SDS011;6932;51.438;5.470;2023-02-15T08:53:40;23.33;;;15.43;;
13720;SDS011;6932;51.438;5.470;2023-02-15T08:56:09;25.13;;;16.63;;
13720;SDS011;6932;51.438;5.470;2023-02-15T08:58:36;23.33;;;15.83;;
13720;SDS011;6932;51.438;5.470;2023-02-15T09:01:13;24.43;;;16.13;;
13720;SDS011;6932;51.438;5.470;2023-02-15T09:03:48;23.70;;;15.43;;
13720;SDS011;6932;51.438;5.470;2023-02-15T09:06:19;22.63;;;15.80;;
13720;SDS011;6932;51.438;5.470;2023-02-15T09:08:47;24.17;;;15.80;;
13720;SDS011;6932;51.438;5.470;2023-02-15T09:13:52;25.40;;;16.60;;
13720;SDS011;6932;51.438;5.470;2023-02-15T09:16:24;22.77;;;15.33;;
13720;SDS011;6932;51.438;5.470;2023-02-15T09:18:53;22.90;;;15.33;;
13720;SDS011;6932;51.438;5.470;2023-02-15T09:21:22;23.23;;;16.17;;
13720;SDS011;6932;51.438;5.470;2023-02-15T09:23:51;22.40;;;15.60;;
13720;SDS011;6932;51.438;5.470;2023-02-15T09:26:26;26.53;;;16.47;;
13720;SDS011;6932;51.438;5.470;2023-02-15T09:28:59;23.27;;;16.00;;
13720;SDS011;6932;51.438;5.470;2023-02-15T09:31:29;24.37;;;16.43;;
13720;SDS011;6932;51.438;5.470;2023-02-15T09:34:02;22.97;;;15.80;;
13720;SDS011;6932;51.438;5.470;2023-02-15T09:36:32;22.63;;;15.70;;
13720;SDS011;6932;51.438;5.470;2023-02-15T09:39:01;22.50;;;15.37;;
13720;SDS011;6932;51.438;5.470;2023-02-15T09:44:37;25.07;;;16.70;;
13720;SDS011;6932;51.438;5.470;2023-02-15T10:04:12;23.13;;;15.97;;
13720;SDS011;6932;51.438;5.470;2023-02-15T10:07:09;25.07;;;15.83;;
13720;SDS011;6932;51.438;5.470;2023-02-15T10:18:33;22.97;;;15.07;;
13720;SDS011;6932;51.438;5.470;2023-02-15T10:21:41;22.10;;;14.37;;
13720;SDS011;6932;51.438;5.470;2023-02-15T10:27:30;24.93;;;16.67;;
13720;SDS011;6932;51.438;5.470;2023-02-15T10:30:10;23.33;;;15.53;;
13720;SDS011;6932;51.438;5.470;2023-02-15T10:33:03;22.13;;;15.53;;
13720;SDS011;6932;51.438;5.470;2023-02-15T10:35:44;24.63;;;15.20;;
13720;SDS011;6932;51.438;5.470;2023-02-15T10:41:47;24.90;;;15.10;;
13720;SDS011;6932;51.438;5.470;2023-02-15T10:56:17;23.30;;;15.10;;
13720;SDS011;6932;51.438;5.470;2023-02-15T11:02:04;21.60;;;14.93;;
13720;SDS011;6932;51.438;5.470;2023-02-15T11:08:06;21.40;;;14.70;;
13720;SDS011;6932;51.438;5.470;2023-02-15T11:10:39;22.17;;;14.60;;
13720;SDS011;6932;51.438;5.470;2023-02-15T11:13:27;21.70;;;14.60;;
13720;SDS011;6932;51.438;5.470;2023-02-15T11:16:01;21.13;;;14.17;;
13720;SDS011;6932;51.438;5.470;2023-02-15T11:18:36;21.00;;;14.37;;
13720;SDS011;6932;51.438;5.470;2023-02-15T11:21:31;21.57;;;14.80;;
13720;SDS011;6932;51.438;5.470;2023-02-15T11:24:09;21.03;;;14.50;;
13720;SDS011;6932;51.438;5.470;2023-02-15T11:32:26;21.43;;;14.27;;
13720;SDS011;6932;51.438;5.470;2023-02-15T11:35:00;21.70;;;14.80;;
13720;SDS011;6932;51.438;5.470;2023-02-15T11:37:39;23.40;;;15.40;;
13720;SDS011;6932;51.438;5.470;2023-02-15T11:40:21;21.37;;;14.50;;
13720;SDS011;6932;51.438;5.470;2023-02-15T11:42:58;21.43;;;14.33;;
13720;SDS011;6932;51.438;5.470;2023-02-15T11:45:32;21.47;;;14.27;;
13720;SDS011;6932;51.438;5.470;2023-02-15T11:48:00;22.30;;;15.07;;
13720;SDS011;6932;51.438;5.470;2023-02-15T11:50:34;22.13;;;14.47;;
13720;SDS011;6932;51.438;5.470;2023-02-15T11:53:06;21.67;;;14.63;;
13720;SDS011;6932;51.438;5.470;2023-02-15T11:55:43;21.50;;;14.50;;
13720;SDS011;6932;51.438;5.470;2023-02-15T12:00:50;22.67;;;14.83;;
13720;SDS011;6932;51.438;5.470;2023-02-15T12:03:32;20.07;;;13.90;;
13720;SDS011;6932;51.438;5.470;2023-02-15T12:06:28;20.37;;;14.10;;
13720;SDS011;6932;51.438;5.470;2023-02-15T12:14:49;20.83;;;14.13;;
13720;SDS011;6932;51.438;5.470;2023-02-15T12:17:20;20.67;;;13.63;;
13720;SDS011;6932;51.438;5.470;2023-02-15T12:19:49;20.87;;;14.23;;
13720;SDS011;6932;51.438;5.470;2023-02-15T12:22:21;21.50;;;13.03;;
13720;SDS011;6932;51.438;5.470;2023-02-15T12:24:49;19.70;;;12.47;;
13720;SDS011;6932;51.438;5.470;2023-02-15T12:27:27;20.97;;;13.10;;
13720;SDS011;6932;51.438;5.470;2023-02-15T12:29:59;19.97;;;13.07;;
13720;SDS011;6932;51.438;5.470;2023-02-15T12:32:46;19.27;;;12.60;;
13720;SDS011;6932;51.438;5.470;2023-02-15T12:37:55;20.07;;;13.03;;
13720;SDS011;6932;51.438;5.470;2023-02-15T12:40:31;21.50;;;12.73;;
13720;SDS011;6932;51.438;5.470;2023-02-15T12:42:59;22.10;;;12.97;;
13720;SDS011;6932;51.438;5.470;2023-02-15T12:50:41;22.83;;;13.87;;
13720;SDS011;6932;51.438;5.470;2023-02-15T12:53:17;21.90;;;13.23;;
13720;SDS011;6932;51.438;5.470;2023-02-15T12:55:59;22.17;;;13.00;;
13720;SDS011;6932;51.438;5.470;2023-02-15T12:58:31;20.73;;;12.97;;
13720;SDS011;6932;51.438;5.470;2023-02-15T13:06:25;20.47;;;12.83;;
13720;SDS011;6932;51.438;5.470;2023-02-15T13:11:57;19.63;;;12.77;;
13720;SDS011;6932;51.438;5.470;2023-02-15T13:14:45;20.97;;;12.83;;
13720;SDS011;6932;51.438;5.470;2023-02-15T13:17:16;20.77;;;12.83;;
13720;SDS011;6932;51.438;5.470;2023-02-15T13:19:50;22.57;;;13.00;;
13720;SDS011;6932;51.438;5.470;2023-02-15T13:22:23;19.73;;;12.27;;
13720;SDS011;6932;51.438;5.470;2023-02-15T13:25:02;21.20;;;13.87;;
13720;SDS011;6932;51.438;5.470;2023-02-15T13:27:40;22.20;;;12.30;;
13720;SDS011;6932;51.438;5.470;2023-02-15T13:30:27;23.83;;;12.83;;
13720;SDS011;6932;51.438;5.470;2023-02-15T13:33:08;19.63;;;12.63;;
13720;SDS011;6932;51.438;5.470;2023-02-15T13:41:22;21.97;;;13.43;;
13720;SDS011;6932;51.438;5.470;2023-02-15T14:02:56;21.90;;;12.87;;
13720;SDS011;6932;51.438;5.470;2023-02-15T14:17:23;22.53;;;12.80;;
13720;SDS011;6932;51.438;5.470;2023-02-15T14:26:09;21.60;;;13.23;;
13720;SDS011;6932;51.438;5.470;2023-02-15T14:29:06;23.60;;;13.80;;
13720;SDS011;6932;51.438;5.470;2023-02-15T14:32:10;21.73;;;13.43;;
13720;SDS011;6932;51.438;5.470;2023-02-15T14:35:05;23.57;;;13.57;;
13720;SDS011;6932;51.438;5.470;2023-02-15T14:51:54;24.73;;;15.97;;
13720;SDS011;6932;51.438;5.470;2023-02-15T14:59:27;23.60;;;15.13;;
13720;SDS011;6932;51.438;5.470;2023-02-15T15:05:27;24.60;;;15.90;;
13720;SDS011;6932;51.438;5.470;2023-02-15T15:08:19;23.00;;;15.30;;
13720;SDS011;6932;51.438;5.470;2023-02-15T15:13:57;23.73;;;15.67;;
13720;SDS011;6932;51.438;5.470;2023-02-15T15:19:03;24.77;;;15.47;;
13720;SDS011;6932;51.438;5.470;2023-02-15T15:41:53;20.87;;;14.63;;
13720;SDS011;6932;51.438;5.470;2023-02-15T15:50:17;22.50;;;15.03;;
13720;SDS011;6932;51.438;5.470;2023-02-15T15:52:49;22.73;;;15.57;;
13720;SDS011;6932;51.438;5.470;2023-02-15T15:55:22;22.97;;;15.83;;
13720;SDS011;6932;51.438;5.470;2023-02-15T15:57:55;22.97;;;15.30;;
13720;SDS011;6932;51.438;5.470;2023-02-15T16:00:47;24.50;;;16.07;;
13720;SDS011;6932;51.438;5.470;2023-02-15T16:03:21;22.40;;;15.17;;
13720;SDS011;6932;51.438;5.470;2023-02-15T16:05:50;24.37;;;14.90;;
13720;SDS011;6932;51.438;5.470;2023-02-15T16:10:53;23.07;;;14.40;;
13720;SDS011;6932;51.438;5.470;2023-02-15T16:13:19;23.87;;;15.03;;
13720;SDS011;6932;51.438;5.470;2023-02-15T16:15:46;21.53;;;14.83;;
13720;SDS011;6932;51.438;5.470;2023-02-15T16:18:17;22.53;;;15.10;;
13720;SDS011;6932;51.438;5.470;2023-02-15T16:20:51;24.47;;;15.07;;
13720;SDS011;6932;51.438;5.470;2023-02-15T16:28:37;23.13;;;16.17;;
13720;SDS011;6932;51.438;5.470;2023-02-15T16:31:13;23.10;;;14.87;;
13720;SDS011;6932;51.438;5.470;2023-02-15T16:33:42;23.83;;;16.60;;
13720;SDS011;6932;51.438;5.470;2023-02-15T16:36:31;25.67;;;16.70;;
13720;SDS011;6932;51.438;5.470;2023-02-15T16:41:22;24.83;;;17.50;;
13720;SDS011;6932;51.438;5.470;2023-02-15T16:43:52;23.57;;;17.17;;
13720;SDS011;6932;51.438;5.470;2023-02-15T16:46:26;25.13;;;16.73;;
13720;SDS011;6932;51.438;5.470;2023-02-15T16:48:55;24.10;;;17.33;;
13720;SDS011;6932;51.438;5.470;2023-02-15T16:51:29;25.70;;;17.27;;
13720;SDS011;6932;51.438;5.470;2023-02-15T16:54:01;28.80;;;18.03;;
13720;SDS011;6932;51.438;5.470;2023-02-15T16:56:33;24.63;;;17.60;;
13720;SDS011;6932;51.438;5.470;2023-02-15T16:59:01;23.37;;;16.50;;
13720;SDS011;6932;51.438;5.470;2023-02-15T17:01:29;26.30;;;17.77;;
13720;SDS011;6932;51.438;5.470;2023-02-15T17:04:10;25.47;;;17.63;;
13720;SDS011;6932;51.438;5.470;2023-02-15T17:07:00;26.37;;;16.80;;
13720;SDS011;6932;51.438;5.470;2023-02-15T17:09:40;26.20;;;16.73;;
13720;SDS011;6932;51.438;5.470;2023-02-15T17:15:30;25.33;;;17.63;;
13720;SDS011;6932;51.438;5.470;2023-02-15T17:18:12;25.47;;;17.47;;
13720;SDS011;6932;51.438;5.470;2023-02-15T17:20:48;27.17;;;17.67;;
13720;SDS011;6932;51.438;5.470;2023-02-15T17:28:55;28.27;;;18.23;;
13720;SDS011;6932;51.438;5.470;2023-02-15T17:31:27;28.27;;;17.77;;
13720;SDS011;6932;51.438;5.470;2023-02-15T17:33:58;26.73;;;18.47;;
13720;SDS011;6932;51.438;5.470;2023-02-15T17:36:30;28.67;;;19.00;;
13720;SDS011;6932;51.438;5.470;2023-02-15T17:41:25;26.40;;;18.73;;
13720;SDS011;6932;51.438;5.470;2023-02-15T17:43:54;26.83;;;18.97;;
13720;SDS011;6932;51.438;5.470;2023-02-15T17:46:20;27.10;;;18.77;;
13720;SDS011;6932;51.438;5.470;2023-02-15T17:48:47;28.30;;;19.20;;
13720;SDS011;6932;51.438;5.470;2023-02-15T17:51:16;27.60;;;18.93;;
13720;SDS011;6932;51.438;5.470;2023-02-15T17:53:44;28.40;;;19.30;;
13720;SDS011;6932;51.438;5.470;2023-02-15T17:56:29;27.23;;;19.47;;
13720;SDS011;6932;51.438;5.470;2023-02-15T17:58:59;28.17;;;19.23;;
13720;SDS011;6932;51.438;5.470;2023-02-15T18:01:24;29.90;;;19.27;;
13720;SDS011;6932;51.438;5.470;2023-02-15T18:04:13;28.37;;;19.20;;
13720;SDS011;6932;51.438;5.470;2023-02-15T18:06:58;28.67;;;19.10;;
13720;SDS011;6932;51.438;5.470;2023-02-15T18:09:43;28.27;;;19.50;;
13720;SDS011;6932;51.438;5.470;2023-02-15T18:12:29;29.70;;;19.40;;
13720;SDS011;6932;51.438;5.470;2023-02-15T18:14:58;25.73;;;18.97;;
13720;SDS011;6932;51.438;5.470;2023-02-15T18:17:32;29.47;;;19.67;;
13720;SDS011;6932;51.438;5.470;2023-02-15T18:20:03;28.70;;;18.90;;
13720;SDS011;6932;51.438;5.470;2023-02-15T18:22:43;27.30;;;18.83;;
13720;SDS011;6932;51.438;5.470;2023-02-15T18:25:13;28.53;;;18.97;;
13720;SDS011;6932;51.438;5.470;2023-02-15T18:27:42;28.53;;;19.53;;
13720;SDS011;6932;51.438;5.470;2023-02-15T18:30:18;27.47;;;18.67;;
13720;SDS011;6932;51.438;5.470;2023-02-15T18:32:48;32.00;;;20.53;;
13720;SDS011;6932;51.438;5.470;2023-02-15T18:35:18;28.97;;;20.30;;
13720;SDS011;6932;51.438;5.470;2023-02-15T18:37:48;29.53;;;19.93;;
13720;SDS011;6932;51.438;5.470;2023-02-15T18:40:19;31.20;;;20.03;;
13720;SDS011;6932;51.438;5.470;2023-02-15T18:42:50;29.67;;;19.93;;
13720;SDS011;6932;51.438;5.470;2023-02-15T18:45:20;29.07;;;19.77;;
13720;SDS011;6932;51.438;5.470;2023-02-15T18:47:52;30.30;;;20.47;;
13720;SDS011;6932;51.438;5.470;2023-02-15T18:50:19;30.07;;;21.10;;
13720;SDS011;6932;51.438;5.470;2023-02-15T18:52:48;28.60;;;20.13;;
13720;SDS011;6932;51.438;5.470;2023-02-15T18:57:48;30.00;;;21.30;;
13720;SDS011;6932;51.438;5.470;2023-02-15T19:00:17;30.67;;;21.53;;
13720;SDS011;6932;51.438;5.470;2023-02-15T19:02:55;31.67;;;21.87;;
13720;SDS011;6932;51.438;5.470;2023-02-15T19:05:23;29.83;;;20.77;;
13720;SDS011;6932;51.438;5.470;2023-02-15T19:07:53;29.70;;;20.40;;
13720;SDS011;6932;51.438;5.470;2023-02-15T19:10:22;30.20;;;21.30;;
13720;SDS011;6932;51.438;5.470;2023-02-15T19:12:51;29.27;;;20.87;;